createdAt,value
2023-07-19T00:00:10.711Z,99.10
2023-07-19T00:02:38.395Z,97.90
2023-07-19T00:05:06.793Z,97.01
2023-07-19T00:07:36.016Z,95.79
2023-07-19T00:10:04.461Z,96.82
2023-07-19T00:12:39.351Z,96.66
2023-07-19T00:15:18.707Z,96.29
2023-07-19T00:17:46.717Z,96.08
2023-07-19T00:20:15.440Z,96.21
2023-07-19T00:22:44.484Z,95.46
2023-07-19T00:25:12.208Z,95.48
2023-07-19T00:27:39.939Z,93.81
2023-07-19T00:30:08.946Z,93.89
2023-07-19T00:32:36.696Z,96.03
2023-07-19T00:35:04.891Z,92.67
2023-07-19T00:37:32.555Z,92.82
2023-07-19T00:40:01.719Z,92.38
2023-07-19T00:42:29.342Z,94.94
2023-07-19T00:44:57.086Z,92.88
2023-07-19T00:47:27.835Z,94.63
2023-07-19T00:49:56.101Z,96.60
2023-07-19T00:52:23.834Z,97.44
2023-07-19T00:54:51.548Z,98.79
2023-07-19T00:57:20.703Z,99.44
2023-07-19T00:59:48.393Z,99.60
2023-07-19T01:02:16.065Z,98.47
2023-07-19T01:04:43.771Z,99.14
2023-07-19T01:07:11.728Z,98.44
2023-07-19T01:09:39.391Z,97.85
2023-07-19T01:12:09.831Z,100.00
2023-07-19T01:14:38.853Z,100.00
2023-07-19T01:17:07.082Z,99.44
2023-07-19T01:19:34.777Z,100.00
2023-07-19T01:22:02.707Z,100.00
2023-07-19T01:24:31.729Z,100.00
2023-07-19T01:27:06.061Z,100.00
2023-07-19T01:29:40.815Z,100.00
2023-07-19T01:32:09.295Z,100.00
2023-07-19T01:34:36.941Z,100.00
2023-07-19T01:37:04.820Z,100.00
2023-07-19T01:39:34.129Z,100.00
2023-07-19T01:42:01.744Z,100.00
2023-07-19T01:44:29.438Z,100.00
2023-07-19T01:46:57.077Z,100.00
2023-07-19T01:49:24.710Z,100.00
2023-07-19T01:51:52.342Z,100.00
2023-07-19T01:54:19.981Z,100.00
2023-07-19T01:56:48.979Z,100.00
2023-07-19T01:59:16.637Z,100.00
2023-07-19T02:01:45.039Z,100.00
2023-07-19T02:04:12.787Z,100.00
2023-07-19T02:06:40.549Z,100.00
2023-07-19T02:09:08.253Z,100.00
2023-07-19T02:11:36.756Z,100.00
2023-07-19T02:14:05.986Z,100.00
2023-07-19T02:16:33.626Z,100.00
2023-07-19T02:19:01.291Z,100.00
2023-07-19T02:21:28.942Z,100.00
2023-07-19T02:23:56.803Z,100.00
2023-07-19T02:26:24.566Z,100.00
2023-07-19T02:28:52.319Z,100.00
2023-07-19T02:31:21.555Z,100.00
2023-07-19T02:33:49.363Z,100.00
2023-07-19T02:36:17.235Z,100.00
2023-07-19T02:38:45.381Z,100.00
2023-07-19T02:41:14.200Z,100.00
2023-07-19T02:43:41.928Z,100.00
2023-07-19T02:46:09.582Z,100.00
2023-07-19T02:48:38.594Z,100.00
2023-07-19T02:51:06.236Z,100.00
2023-07-19T02:53:33.880Z,100.00
2023-07-19T02:56:01.643Z,100.00
2023-07-19T02:58:30.052Z,100.00
2023-07-19T03:00:57.739Z,100.00
2023-07-19T03:03:25.586Z,100.00
2023-07-19T03:05:54.613Z,100.00
2023-07-19T03:08:22.250Z,100.00
2023-07-19T03:10:54.419Z,100.00
2023-07-19T03:13:22.198Z,100.00
2023-07-19T03:15:50.025Z,100.00
2023-07-19T03:18:17.924Z,100.00
2023-07-19T03:20:45.809Z,100.00
2023-07-19T03:23:15.335Z,100.00
2023-07-19T03:25:43.201Z,100.00
2023-07-19T03:28:11.184Z,100.00
2023-07-19T03:30:39.081Z,100.00
2023-07-19T03:33:06.909Z,100.00
2023-07-19T03:35:34.757Z,100.00
2023-07-19T03:38:03.065Z,100.00
2023-07-19T03:40:32.274Z,100.00
2023-07-19T03:43:00.130Z,100.00
2023-07-19T03:45:29.569Z,100.00
2023-07-19T03:47:57.597Z,100.00
2023-07-19T03:50:26.748Z,100.00
2023-07-19T03:52:54.534Z,100.00
2023-07-19T03:55:23.028Z,100.00
2023-07-19T03:57:52.379Z,100.00
2023-07-19T04:00:20.567Z,100.00
2023-07-19T04:02:48.325Z,100.00
2023-07-19T04:05:16.910Z,100.00
2023-07-19T04:07:45.034Z,100.00
2023-07-19T04:10:12.738Z,100.00
2023-07-19T04:12:40.420Z,100.00
2023-07-19T04:15:10.212Z,100.00
2023-07-19T04:17:37.953Z,100.00
2023-07-19T04:20:07.579Z,100.00
2023-07-19T04:22:35.294Z,100.00
2023-07-19T04:25:04.605Z,100.00
2023-07-19T04:27:33.206Z,100.00
2023-07-19T04:30:00.910Z,100.00
2023-07-19T04:32:30.113Z,100.00
2023-07-19T04:34:59.206Z,100.00
2023-07-19T04:37:26.968Z,100.00
2023-07-19T04:39:54.612Z,100.00
2023-07-19T04:42:23.292Z,100.00
2023-07-19T04:44:50.976Z,100.00
2023-07-19T04:47:18.955Z,100.00
2023-07-19T04:49:47.994Z,100.00
2023-07-19T04:52:15.726Z,100.00
2023-07-19T04:54:43.428Z,100.00
2023-07-19T04:57:11.101Z,100.00
2023-07-19T04:59:38.808Z,100.00
2023-07-19T05:02:07.073Z,100.00
2023-07-19T05:04:34.749Z,100.00
2023-07-19T05:07:03.805Z,100.00
2023-07-19T05:09:31.485Z,100.00
2023-07-19T05:11:59.615Z,100.00
2023-07-19T05:14:27.446Z,100.00
2023-07-19T05:16:55.470Z,100.00
2023-07-19T05:19:23.159Z,100.00
2023-07-19T05:21:51.744Z,100.00
2023-07-19T05:24:20.955Z,100.00
2023-07-19T05:26:48.956Z,100.00
2023-07-19T05:29:16.600Z,100.00
2023-07-19T05:31:44.313Z,100.00
2023-07-19T05:34:11.961Z,100.00
2023-07-19T05:36:39.713Z,100.00
2023-07-19T05:39:07.442Z,100.00
2023-07-19T05:41:36.532Z,100.00
2023-07-19T05:44:11.674Z,100.00
2023-07-19T05:46:40.397Z,100.00
2023-07-19T05:49:07.998Z,100.00
2023-07-19T05:51:35.896Z,100.00
2023-07-19T05:54:04.764Z,100.00
2023-07-19T05:56:32.497Z,99.54
2023-07-19T05:59:01.754Z,100.00
2023-07-19T06:01:32.319Z,100.00
2023-07-19T06:04:02.173Z,98.68
2023-07-19T06:06:30.058Z,98.99
2023-07-19T06:08:57.701Z,98.27
2023-07-19T06:11:25.378Z,98.18
2023-07-19T06:13:53.161Z,95.24
2023-07-19T06:16:22.337Z,95.29
2023-07-19T06:18:50.054Z,95.79
2023-07-19T06:21:17.840Z,92.81
2023-07-19T06:23:45.767Z,92.22
2023-07-19T06:26:14.176Z,92.57
2023-07-19T06:28:42.031Z,91.58
2023-07-19T06:31:09.857Z,91.38
2023-07-19T06:33:39.062Z,90.69
2023-07-19T06:36:07.277Z,91.58
2023-07-19T06:38:38.022Z,86.71
2023-07-19T06:41:06.383Z,85.70
2023-07-19T06:43:34.446Z,86.32
2023-07-19T06:59:38.060Z,76.62
2023-07-19T07:12:23.070Z,72.46
2023-07-19T08:51:53.615Z,46.60
2023-07-19T08:57:45.131Z,50.69
2023-07-19T09:06:44.153Z,46.43
2023-07-19T09:16:04.599Z,46.15
2023-07-19T09:31:29.408Z,44.94
2023-07-19T09:34:52.062Z,45.51
2023-07-19T09:37:44.073Z,43.62
2023-07-19T09:41:12.518Z,43.34
2023-07-19T09:47:49.639Z,44.89
2023-07-19T09:59:11.862Z,43.26
2023-07-19T10:02:02.819Z,42.85
2023-07-19T10:04:48.380Z,43.42
2023-07-19T10:10:54.081Z,43.88
2023-07-19T12:18:45.376Z,41.95
2023-07-19T12:28:54.571Z,40.31
2023-07-19T13:46:12.954Z,37.48
2023-07-19T14:05:22.797Z,35.97
2023-07-19T15:33:49.193Z,38.04
2023-07-19T15:41:05.988Z,37.89
2023-07-19T15:48:39.168Z,37.96
2023-07-19T15:51:08.791Z,39.58
2023-07-19T16:06:05.304Z,40.56
2023-07-19T19:24:54.485Z,47.70
2023-07-19T19:27:36.508Z,48.57
2023-07-19T23:51:10.946Z,58.74
2023-07-19T23:54:54.085Z,58.23
2023-07-19T23:57:36.899Z,58.75
